createdAt,value
2023-02-27T00:00:39.328Z,1.02
2023-02-27T00:03:10.966Z,0.99
2023-02-27T00:05:41.614Z,0.96
2023-02-27T00:08:12.144Z,0.90
2023-02-27T00:10:43.396Z,0.83
2023-02-27T00:13:12.761Z,0.77
2023-02-27T00:15:43.880Z,0.64
2023-02-27T00:18:19.385Z,0.56
2023-02-27T00:20:50.382Z,0.54
2023-02-27T00:23:32.245Z,0.50
2023-02-27T00:26:04.903Z,0.53
2023-02-27T00:28:36.330Z,0.63
2023-02-27T00:31:05.199Z,0.72
2023-02-27T00:33:36.688Z,0.74
2023-02-27T00:36:05.072Z,0.70
2023-02-27T00:38:45.518Z,0.73
2023-02-27T00:41:17.283Z,0.73
2023-02-27T00:43:47.019Z,0.77
2023-02-27T00:46:15.491Z,0.77
2023-02-27T00:48:53.769Z,0.74
2023-02-27T00:51:26.454Z,0.78
2023-02-27T00:59:53.404Z,0.95
2023-02-27T01:02:30.737Z,0.89
2023-02-27T01:05:43.660Z,0.84
2023-02-27T01:22:36.126Z,0.55
2023-02-27T01:51:27.384Z,0.72
2023-02-27T01:54:12.478Z,0.77
2023-02-27T02:04:01.869Z,0.76
2023-02-27T02:06:44.862Z,0.67
2023-02-27T02:09:26.026Z,0.62
2023-02-27T02:12:04.714Z,0.65
2023-02-27T02:15:18.663Z,0.66
2023-02-27T02:18:27.262Z,0.67
2023-02-27T02:21:31.686Z,0.62
2023-02-27T02:34:17.576Z,0.62
2023-02-27T02:47:35.735Z,0.52
2023-02-27T02:50:36.580Z,0.58
2023-02-27T02:58:03.468Z,0.69
2023-02-27T03:01:08.716Z,0.78
2023-02-27T03:04:01.784Z,0.90
2023-02-27T03:06:39.304Z,0.89
2023-02-27T03:09:25.659Z,0.85
2023-02-27T03:12:07.362Z,0.82
2023-02-27T03:15:15.348Z,0.81
2023-02-27T03:17:55.661Z,0.80
2023-02-27T03:20:38.404Z,0.85
2023-02-27T03:23:33.741Z,0.86
2023-02-27T03:26:11.859Z,0.85
2023-02-27T03:29:30.389Z,0.81
2023-02-27T03:32:53.179Z,0.76
2023-02-27T03:35:23.461Z,0.78
2023-02-27T03:38:24.798Z,0.83
2023-02-27T03:41:27.057Z,0.92
2023-02-27T03:44:35.129Z,0.93
2023-02-27T03:47:12.270Z,0.94
2023-02-27T03:49:42.274Z,0.96
2023-02-27T03:52:13.122Z,0.97
2023-02-27T03:54:56.250Z,0.95
2023-02-27T03:57:27.197Z,0.95
2023-02-27T03:59:57.305Z,1.01
2023-02-27T04:02:34.781Z,1.02
2023-02-27T04:05:14.069Z,1.03
2023-02-27T04:07:53.994Z,1.07
2023-02-27T04:12:31.304Z,1.08
2023-02-27T04:15:52.560Z,0.97
2023-02-27T04:22:05.300Z,0.97
2023-02-27T04:25:24.717Z,1.03
2023-02-27T04:28:13.339Z,1.13
2023-02-27T04:40:28.263Z,1.13
2023-02-27T04:49:57.251Z,1.17
2023-02-27T04:56:48.680Z,1.12
2023-02-27T04:59:43.670Z,1.11
2023-02-27T05:03:04.301Z,1.13
2023-02-27T05:05:44.628Z,1.16
2023-02-27T05:08:52.749Z,1.19
2023-02-27T05:12:36.078Z,1.20
2023-02-27T05:15:36.872Z,1.28
2023-02-27T05:21:39.827Z,1.29
2023-02-27T05:24:38.576Z,1.20
2023-02-27T05:27:50.625Z,1.16
2023-02-27T05:31:27.166Z,1.13
2023-02-27T05:34:22.953Z,1.00
2023-02-27T06:50:43.956Z,1.33
2023-02-27T07:07:39.027Z,1.71
2023-02-27T07:10:42.521Z,1.76
2023-02-27T07:13:19.288Z,1.65
2023-02-27T07:15:53.622Z,1.58
2023-02-27T07:21:34.736Z,1.51
2023-02-27T07:24:06.098Z,1.53
2023-02-27T07:26:35.995Z,1.54
2023-02-27T07:29:06.684Z,1.54
2023-02-27T07:31:42.171Z,1.60
2023-02-27T07:34:12.486Z,1.65
2023-02-27T07:36:39.284Z,1.71
2023-02-27T07:39:10.687Z,1.80
2023-02-27T07:41:39.468Z,1.88
2023-02-27T07:44:13.466Z,1.95
2023-02-27T07:46:41.507Z,1.96
2023-02-27T07:49:07.874Z,2.03
2023-02-27T07:51:40.646Z,2.08
2023-02-27T07:54:07.075Z,2.20
2023-02-27T07:56:35.625Z,2.26
2023-02-27T07:59:02.226Z,2.23
2023-02-27T08:01:29.408Z,2.23
2023-02-27T08:03:59.645Z,2.29
2023-02-27T08:06:26.521Z,2.39
2023-02-27T08:08:53.366Z,2.43
2023-02-27T08:11:21.252Z,2.52
2023-02-27T08:14:00.254Z,2.57
2023-02-27T08:16:33.108Z,2.64
2023-02-27T08:19:00.710Z,2.51
2023-02-27T08:21:39.740Z,2.47
2023-02-27T08:24:06.559Z,2.49
2023-02-27T08:26:34.826Z,2.51
2023-02-27T08:29:01.338Z,2.37
2023-02-27T08:31:45.067Z,2.34
2023-02-27T08:34:17.800Z,2.33
2023-02-27T08:36:45.857Z,2.42
2023-02-27T08:39:14.742Z,2.48
2023-02-27T08:41:41.926Z,2.48
2023-02-27T08:44:09.170Z,2.49
2023-02-27T08:46:37.503Z,2.65
2023-02-27T08:49:07.460Z,2.59
2023-02-27T08:51:43.574Z,2.58
2023-02-27T08:54:11.053Z,2.56
2023-02-27T08:59:36.939Z,2.43
2023-02-27T09:02:17.076Z,2.41
2023-02-27T09:04:49.401Z,2.46
2023-02-27T09:07:27.939Z,2.49
2023-02-27T09:09:58.704Z,2.44
2023-02-27T09:12:28.520Z,2.42
2023-02-27T09:15:03.444Z,2.42
2023-02-27T09:17:33.793Z,2.53
2023-02-27T09:23:03.662Z,2.66
2023-02-27T09:25:57.505Z,2.69
2023-02-27T09:28:44.785Z,2.79
2023-02-27T09:31:39.804Z,2.83
2023-02-27T09:34:06.674Z,2.91
2023-02-27T09:36:33.801Z,2.92
2023-02-27T09:39:12.729Z,3.01
2023-02-27T09:42:20.293Z,3.07
2023-02-27T09:45:02.648Z,3.13
2023-02-27T09:47:47.619Z,3.36
2023-02-27T09:50:59.327Z,3.47
2023-02-27T09:54:30.729Z,3.46
2023-02-27T09:57:40.955Z,3.53
2023-02-27T10:00:40.132Z,3.59
2023-02-27T10:03:34.922Z,3.61
2023-02-27T10:06:51.025Z,3.59
2023-02-27T10:40:05.091Z,3.44
2023-02-27T10:42:41.676Z,3.41
2023-02-27T10:45:17.016Z,3.40
2023-02-27T10:47:44.662Z,3.40
2023-02-27T10:50:43.512Z,3.40
2023-02-27T10:53:23.789Z,3.37
2023-02-27T10:56:22.944Z,3.39
2023-02-27T10:59:27.159Z,3.39
2023-02-27T11:02:35.914Z,3.36
2023-02-27T11:05:09.851Z,3.37
2023-02-27T11:07:39.200Z,3.37
2023-02-27T11:10:28.845Z,3.40
2023-02-27T11:13:26.419Z,3.42
2023-02-27T11:16:26.466Z,3.41
2023-02-27T11:18:58.082Z,3.40
2023-02-27T11:21:32.441Z,3.43
2023-02-27T11:24:28.838Z,3.50
2023-02-27T11:27:03.484Z,3.52
2023-02-27T11:29:31.091Z,3.51
2023-02-27T11:32:21.809Z,3.39
2023-02-27T11:34:57.795Z,3.33
2023-02-27T11:37:37.229Z,3.22
2023-02-27T11:40:19.525Z,3.13
2023-02-27T11:43:03.334Z,3.09
2023-02-27T11:46:19.033Z,3.09
2023-02-27T11:49:16.528Z,3.09
2023-02-27T11:51:49.930Z,3.15
2023-02-27T11:54:41.428Z,3.13
2023-02-27T11:57:46.557Z,3.16
2023-02-27T12:00:29.202Z,3.13
2023-02-27T12:03:38.646Z,3.03
2023-02-27T12:06:20.140Z,3.04
2023-02-27T12:09:03.695Z,3.07
2023-02-27T12:11:42.226Z,3.10
2023-02-27T12:23:58.470Z,3.14
2023-02-27T12:26:39.340Z,3.21
2023-02-27T12:36:17.553Z,3.31
2023-02-27T12:38:46.209Z,3.29
2023-02-27T12:41:55.399Z,3.30
2023-02-27T12:44:56.119Z,3.31
2023-02-27T12:51:44.615Z,3.22
2023-02-27T13:19:16.935Z,3.13
2023-02-27T13:22:22.167Z,3.13
2023-02-27T13:24:59.969Z,3.12
2023-02-27T13:27:54.055Z,3.12
2023-02-27T13:30:42.821Z,2.97
2023-02-27T13:33:49.530Z,2.91
2023-02-27T13:39:39.949Z,2.85
2023-02-27T13:42:48.409Z,2.87
2023-02-27T13:45:56.861Z,2.85
2023-02-27T13:48:41.982Z,2.88
2023-02-27T13:51:30.539Z,2.90
2023-02-27T13:54:25.023Z,2.79
2023-02-27T13:57:22.552Z,2.75
2023-02-27T14:00:38.204Z,2.72
2023-02-27T14:03:29.956Z,2.59
2023-02-27T14:06:03.348Z,2.42
2023-02-27T14:09:14.108Z,2.37
2023-02-27T14:14:55.909Z,2.34
2023-02-27T14:17:44.579Z,2.36
2023-02-27T14:20:54.446Z,2.39
2023-02-27T14:23:48.695Z,2.39
2023-02-27T14:26:38.504Z,2.42
2023-02-27T14:29:06.339Z,2.49
2023-02-27T14:31:41.012Z,2.54
2023-02-27T14:34:15.747Z,2.53
2023-02-27T14:37:24.773Z,2.47
2023-02-27T14:40:00.710Z,2.34
2023-02-27T14:42:48.977Z,2.30
2023-02-27T14:45:42.953Z,2.32
2023-02-27T14:48:32.523Z,2.30
2023-02-27T14:51:03.237Z,2.23
2023-02-27T14:53:32.671Z,2.24
2023-02-27T14:56:19.240Z,2.26
2023-02-27T15:01:41.621Z,2.19
2023-02-27T15:04:19.498Z,2.20
2023-02-27T15:06:53.386Z,2.17
2023-02-27T15:09:44.910Z,2.15
2023-02-27T15:12:44.433Z,2.13
2023-02-27T15:15:22.072Z,2.11
2023-02-27T15:18:00.112Z,1.97
2023-02-27T15:20:40.057Z,1.92
2023-02-27T15:23:31.082Z,1.94
2023-02-27T15:26:00.026Z,1.97
2023-02-27T15:28:36.661Z,1.99
2023-02-27T15:31:06.640Z,2.03
2023-02-27T15:33:40.465Z,2.01
2023-02-27T15:36:39.711Z,2.00
2023-02-27T15:39:15.155Z,1.98
2023-02-27T15:42:11.475Z,1.99
2023-02-27T15:44:49.726Z,1.97
2023-02-27T15:47:28.150Z,1.94
2023-02-27T15:50:09.990Z,1.89
2023-02-27T15:53:05.152Z,1.89
2023-02-27T15:55:37.736Z,1.88
2023-02-27T15:58:32.919Z,1.86
2023-02-27T16:01:21.632Z,1.87
2023-02-27T16:03:52.420Z,1.88
2023-02-27T16:06:34.184Z,1.89
2023-02-27T16:09:41.174Z,1.90
2023-02-27T16:12:52.409Z,1.85
2023-02-27T16:16:10.241Z,1.82
2023-02-27T16:19:01.318Z,1.76
2023-02-27T16:22:16.199Z,1.70
2023-02-27T16:25:47.618Z,1.67
2023-02-27T16:28:19.902Z,1.64
2023-02-27T16:32:06.481Z,1.61
2023-02-27T16:34:57.208Z,1.56
2023-02-27T16:38:11.562Z,1.55
2023-02-27T16:41:43.870Z,1.58
2023-02-27T16:45:37.061Z,1.59
2023-02-27T16:48:42.344Z,1.57
2023-02-27T16:51:18.178Z,1.57
2023-02-27T16:58:48.366Z,1.56
2023-02-27T17:03:14.040Z,1.58
2023-02-27T17:09:49.387Z,1.59
2023-02-27T17:11:58.340Z,1.55
2023-02-27T17:15:39.360Z,1.55
2023-02-27T18:02:58.019Z,1.72
2023-02-27T18:42:00.575Z,2.24
2023-02-27T18:45:55.166Z,2.06
2023-02-27T18:53:32.124Z,1.72
2023-02-27T19:02:32.130Z,1.57
2023-02-27T19:06:44.344Z,1.45
2023-02-27T19:11:07.082Z,1.35
2023-02-27T19:14:58.332Z,1.26
2023-02-27T19:23:00.575Z,1.21
2023-02-27T19:26:55.146Z,1.19
2023-02-27T19:31:10.767Z,1.14
2023-02-27T19:34:48.538Z,1.11
2023-02-27T20:35:01.831Z,0.97
2023-02-27T20:43:52.192Z,0.98
2023-02-27T20:49:52.257Z,0.90
2023-02-27T20:51:54.608Z,0.85
2023-02-27T20:56:03.771Z,0.81
2023-02-27T21:00:06.584Z,0.79
2023-02-27T21:03:22.768Z,0.78
2023-02-27T21:06:51.707Z,0.76
2023-02-27T21:10:30.721Z,0.72
2023-02-27T21:19:09.556Z,0.72
2023-02-27T21:23:08.572Z,0.64
2023-02-27T21:26:43.918Z,0.54
2023-02-27T21:30:33.609Z,0.56
2023-02-27T21:34:25.693Z,0.52
2023-02-27T21:38:44.964Z,0.43
2023-02-27T21:42:26.267Z,0.40
2023-02-27T21:46:48.909Z,0.39
2023-02-27T21:51:13.616Z,0.36
2023-02-27T21:55:23.792Z,0.36
2023-02-27T22:03:09.804Z,0.35
2023-02-27T22:07:04.279Z,0.33
2023-02-27T22:16:58.749Z,0.26
2023-02-27T22:19:58.499Z,0.19
2023-02-27T22:23:56.041Z,0.13
2023-02-27T22:27:43.443Z,0.07
2023-02-27T22:31:37.800Z,0.05
2023-02-27T22:35:10.522Z,0.03
2023-02-27T22:39:06.049Z,0.00
2023-02-27T22:42:43.026Z,-0.03
2023-02-27T22:46:14.281Z,-0.09
2023-02-27T22:49:30.073Z,-0.08
2023-02-27T23:01:59.456Z,-0.21
2023-02-27T23:06:16.016Z,-0.26
2023-02-27T23:09:37.885Z,-0.28
2023-02-27T23:21:55.456Z,-0.32
2023-02-27T23:25:47.991Z,-0.40
2023-02-27T23:29:30.385Z,-0.41
2023-02-27T23:33:08.824Z,-0.45
2023-02-27T23:36:49.400Z,-0.46
2023-02-27T23:40:44.909Z,-0.48
2023-02-27T23:44:34.172Z,-0.51
2023-02-27T23:48:31.470Z,-0.53
2023-02-27T23:52:48.010Z,-0.56
2023-02-27T23:56:44.630Z,-0.62
